sensor_id;sensor_type;location;lat;lon;timestamp;temperature;humidity
10306;DHT22;5198;52.382;9.020;2023-03-15T00:03:22;2.70;99.90
10306;DHT22;5198;52.382;9.020;2023-03-15T00:07:26;2.70;99.90
10306;DHT22;5198;52.382;9.020;2023-03-15T00:11:29;2.70;99.90
10306;DHT22;5198;52.382;9.020;2023-03-15T00:15:33;2.70;99.90
10306;DHT22;5198;52.382;9.020;2023-03-15T00:19:36;2.70;99.90
10306;DHT22;5198;52.382;9.020;2023-03-15T00:23:39;2.70;99.90
10306;DHT22;5198;52.382;9.020;2023-03-15T00:27:42;2.70;99.90
10306;DHT22;5198;52.382;9.020;2023-03-15T00:31:46;2.70;99.90
10306;DHT22;5198;52.382;9.020;2023-03-15T00:35:50;2.70;99.90
10306;DHT22;5198;52.382;9.020;2023-03-15T00:39:58;2.70;99.90
10306;DHT22;5198;52.382;9.020;2023-03-15T00:44:01;2.70;99.90
10306;DHT22;5198;52.382;9.020;2023-03-15T00:48:06;2.70;99.90
10306;DHT22;5198;52.382;9.020;2023-03-15T00:52:08;2.70;99.90
10306;DHT22;5198;52.382;9.020;2023-03-15T00:56:13;2.70;99.90
10306;DHT22;5198;52.382;9.020;2023-03-15T01:00:18;2.70;99.90
10306;DHT22;5198;52.382;9.020;2023-03-15T01:04:26;2.70;99.90
10306;DHT22;5198;52.382;9.020;2023-03-15T01:08:28;2.70;99.90
10306;DHT22;5198;52.382;9.020;2023-03-15T01:12:32;2.70;99.90
10306;DHT22;5198;52.382;9.020;2023-03-15T01:16:35;2.80;99.90
10306;DHT22;5198;52.382;9.020;2023-03-15T01:20:42;2.80;99.90
10306;DHT22;5198;52.382;9.020;2023-03-15T01:24:46;2.90;99.90
10306;DHT22;5198;52.382;9.020;2023-03-15T01:28:49;2.90;99.90
10306;DHT22;5198;52.382;9.020;2023-03-15T01:32:52;2.90;99.90
10306;DHT22;5198;52.382;9.020;2023-03-15T01:36:56;2.90;99.90
10306;DHT22;5198;52.382;9.020;2023-03-15T01:40:59;3.00;99.90
10306;DHT22;5198;52.382;9.020;2023-03-15T01:49:27;3.00;99.90
10306;DHT22;5198;52.382;9.020;2023-03-15T01:53:32;3.10;99.90
10306;DHT22;5198;52.382;9.020;2023-03-15T01:57:37;3.00;99.90
10306;DHT22;5198;52.382;9.020;2023-03-15T02:01:41;3.00;99.90
10306;DHT22;5198;52.382;9.020;2023-03-15T02:05:47;3.00;99.90
10306;DHT22;5198;52.382;9.020;2023-03-15T02:09:58;3.00;99.90
10306;DHT22;5198;52.382;9.020;2023-03-15T02:14:02;3.00;99.90
10306;DHT22;5198;52.382;9.020;2023-03-15T02:18:05;3.00;99.90
10306;DHT22;5198;52.382;9.020;2023-03-15T02:22:11;3.00;99.90
10306;DHT22;5198;52.382;9.020;2023-03-15T02:30:34;3.00;99.90
10306;DHT22;5198;52.382;9.020;2023-03-15T02:34:37;3.00;99.90
10306;DHT22;5198;52.382;9.020;2023-03-15T02:38:41;3.00;99.90
10306;DHT22;5198;52.382;9.020;2023-03-15T02:42:44;3.00;99.90
10306;DHT22;5198;52.382;9.020;2023-03-15T02:46:50;3.00;99.90
10306;DHT22;5198;52.382;9.020;2023-03-15T02:50:54;3.00;99.90
10306;DHT22;5198;52.382;9.020;2023-03-15T02:54:57;3.00;99.90
10306;DHT22;5198;52.382;9.020;2023-03-15T02:58:59;3.00;99.90
10306;DHT22;5198;52.382;9.020;2023-03-15T03:03:04;3.00;99.90
10306;DHT22;5198;52.382;9.020;2023-03-15T03:07:08;2.90;99.90
10306;DHT22;5198;52.382;9.020;2023-03-15T03:11:11;2.90;99.90
10306;DHT22;5198;52.382;9.020;2023-03-15T03:15:13;2.90;99.90
10306;DHT22;5198;52.382;9.020;2023-03-15T03:19:18;2.80;99.90
10306;DHT22;5198;52.382;9.020;2023-03-15T03:23:20;2.80;99.90
10306;DHT22;5198;52.382;9.020;2023-03-15T03:27:30;2.80;99.90
10306;DHT22;5198;52.382;9.020;2023-03-15T03:31:37;2.80;99.90
10306;DHT22;5198;52.382;9.020;2023-03-15T03:35:44;2.80;99.90
10306;DHT22;5198;52.382;9.020;2023-03-15T03:39:46;2.90;99.90
10306;DHT22;5198;52.382;9.020;2023-03-15T03:43:50;2.90;99.90
10306;DHT22;5198;52.382;9.020;2023-03-15T03:47:53;2.90;99.90
10306;DHT22;5198;52.382;9.020;2023-03-15T03:51:57;2.90;99.90
10306;DHT22;5198;52.382;9.020;2023-03-15T03:56:02;3.00;99.90
10306;DHT22;5198;52.382;9.020;2023-03-15T04:00:06;3.00;99.90
10306;DHT22;5198;52.382;9.020;2023-03-15T04:04:10;3.00;99.90
10306;DHT22;5198;52.382;9.020;2023-03-15T04:08:16;3.00;99.90
10306;DHT22;5198;52.382;9.020;2023-03-15T04:12:18;3.10;99.90
10306;DHT22;5198;52.382;9.020;2023-03-15T04:16:21;3.10;99.90
10306;DHT22;5198;52.382;9.020;2023-03-15T04:20:25;3.10;99.90
10306;DHT22;5198;52.382;9.020;2023-03-15T04:24:29;3.20;99.90
10306;DHT22;5198;52.382;9.020;2023-03-15T04:28:32;3.10;99.90
10306;DHT22;5198;52.382;9.020;2023-03-15T04:32:38;3.20;99.90
10306;DHT22;5198;52.382;9.020;2023-03-15T04:36:43;3.20;99.90
10306;DHT22;5198;52.382;9.020;2023-03-15T04:40:47;3.20;99.90
10306;DHT22;5198;52.382;9.020;2023-03-15T04:44:50;3.20;99.90
10306;DHT22;5198;52.382;9.020;2023-03-15T04:48:54;3.20;99.90
10306;DHT22;5198;52.382;9.020;2023-03-15T04:52:57;3.30;99.90
10306;DHT22;5198;52.382;9.020;2023-03-15T04:57:01;3.30;99.90
10306;DHT22;5198;52.382;9.020;2023-03-15T05:01:04;3.30;99.90
10306;DHT22;5198;52.382;9.020;2023-03-15T05:05:07;3.30;99.90
10306;DHT22;5198;52.382;9.020;2023-03-15T05:09:10;3.30;99.90
10306;DHT22;5198;52.382;9.020;2023-03-15T05:13:21;3.30;99.90
10306;DHT22;5198;52.382;9.020;2023-03-15T05:17:24;3.30;99.90
10306;DHT22;5198;52.382;9.020;2023-03-15T05:21:27;3.30;99.90
10306;DHT22;5198;52.382;9.020;2023-03-15T05:25:29;3.30;99.90
10306;DHT22;5198;52.382;9.020;2023-03-15T05:29:34;3.30;99.90
10306;DHT22;5198;52.382;9.020;2023-03-15T05:33:36;3.30;99.90
10306;DHT22;5198;52.382;9.020;2023-03-15T05:37:41;3.30;99.90
10306;DHT22;5198;52.382;9.020;2023-03-15T05:41:43;3.30;99.90
10306;DHT22;5198;52.382;9.020;2023-03-15T05:45:48;3.30;99.90
10306;DHT22;5198;52.382;9.020;2023-03-15T05:49:51;3.30;99.90
10306;DHT22;5198;52.382;9.020;2023-03-15T05:53:53;3.30;99.90
10306;DHT22;5198;52.382;9.020;2023-03-15T05:57:56;3.30;99.90
10306;DHT22;5198;52.382;9.020;2023-03-15T06:02:00;3.30;99.90
10306;DHT22;5198;52.382;9.020;2023-03-15T06:06:03;3.30;99.90
10306;DHT22;5198;52.382;9.020;2023-03-15T06:10:07;3.30;99.90
10306;DHT22;5198;52.382;9.020;2023-03-15T06:14:09;3.30;99.90
10306;DHT22;5198;52.382;9.020;2023-03-15T06:18:14;3.30;99.90
10306;DHT22;5198;52.382;9.020;2023-03-15T06:22:17;3.20;99.90
10306;DHT22;5198;52.382;9.020;2023-03-15T06:26:21;3.20;99.90
10306;DHT22;5198;52.382;9.020;2023-03-15T06:30:25;3.20;99.90
10306;DHT22;5198;52.382;9.020;2023-03-15T06:34:30;3.10;99.90
10306;DHT22;5198;52.382;9.020;2023-03-15T06:38:32;3.20;99.90
10306;DHT22;5198;52.382;9.020;2023-03-15T06:42:35;3.30;99.90
10306;DHT22;5198;52.382;9.020;2023-03-15T06:46:38;3.50;99.90
10306;DHT22;5198;52.382;9.020;2023-03-15T06:50:43;3.60;99.90
10306;DHT22;5198;52.382;9.020;2023-03-15T06:54:48;3.80;99.90
10306;DHT22;5198;52.382;9.020;2023-03-15T06:58:51;3.90;99.90
10306;DHT22;5198;52.382;9.020;2023-03-15T07:02:54;4.00;99.90
10306;DHT22;5198;52.382;9.020;2023-03-15T07:06:58;4.20;99.90
10306;DHT22;5198;52.382;9.020;2023-03-15T07:11:02;4.30;99.90
10306;DHT22;5198;52.382;9.020;2023-03-15T07:15:05;4.50;99.90
10306;DHT22;5198;52.382;9.020;2023-03-15T07:19:08;4.60;99.90
10306;DHT22;5198;52.382;9.020;2023-03-15T07:23:12;4.80;99.90
10306;DHT22;5198;52.382;9.020;2023-03-15T07:27:15;5.00;99.90
10306;DHT22;5198;52.382;9.020;2023-03-15T07:31:20;5.40;99.90
10306;DHT22;5198;52.382;9.020;2023-03-15T07:35:23;5.80;99.90
10306;DHT22;5198;52.382;9.020;2023-03-15T07:39:27;6.30;99.90
10306;DHT22;5198;52.382;9.020;2023-03-15T07:43:33;6.60;99.90
10306;DHT22;5198;52.382;9.020;2023-03-15T07:47:36;6.80;99.90
10306;DHT22;5198;52.382;9.020;2023-03-15T07:51:39;7.20;99.90
10306;DHT22;5198;52.382;9.020;2023-03-15T07:55:44;7.60;99.90
10306;DHT22;5198;52.382;9.020;2023-03-15T07:59:48;8.00;99.90
10306;DHT22;5198;52.382;9.020;2023-03-15T08:03:52;8.50;99.90
10306;DHT22;5198;52.382;9.020;2023-03-15T08:07:55;9.00;99.90
10306;DHT22;5198;52.382;9.020;2023-03-15T08:11:59;9.30;99.90
10306;DHT22;5198;52.382;9.020;2023-03-15T08:16:02;9.60;99.90
10306;DHT22;5198;52.382;9.020;2023-03-15T08:20:06;9.90;99.90
10306;DHT22;5198;52.382;9.020;2023-03-15T08:24:12;10.30;99.90
10306;DHT22;5198;52.382;9.020;2023-03-15T08:28:17;10.50;99.90
10306;DHT22;5198;52.382;9.020;2023-03-15T08:32:19;10.70;99.90
10306;DHT22;5198;52.382;9.020;2023-03-15T08:36:23;11.00;99.90
10306;DHT22;5198;52.382;9.020;2023-03-15T08:40:27;11.50;99.90
10306;DHT22;5198;52.382;9.020;2023-03-15T08:44:31;11.70;99.90
10306;DHT22;5198;52.382;9.020;2023-03-15T08:48:36;12.00;99.90
10306;DHT22;5198;52.382;9.020;2023-03-15T08:52:39;12.20;99.90
10306;DHT22;5198;52.382;9.020;2023-03-15T08:56:42;12.40;99.90
10306;DHT22;5198;52.382;9.020;2023-03-15T09:00:47;12.30;99.90
10306;DHT22;5198;52.382;9.020;2023-03-15T09:04:50;11.90;99.90
10306;DHT22;5198;52.382;9.020;2023-03-15T09:08:54;11.40;99.90
10306;DHT22;5198;52.382;9.020;2023-03-15T09:12:57;10.90;99.90
10306;DHT22;5198;52.382;9.020;2023-03-15T09:17:01;10.50;99.90
10306;DHT22;5198;52.382;9.020;2023-03-15T09:21:05;10.40;99.90
10306;DHT22;5198;52.382;9.020;2023-03-15T09:25:08;10.30;99.90
10306;DHT22;5198;52.382;9.020;2023-03-15T09:29:11;10.30;99.90
10306;DHT22;5198;52.382;9.020;2023-03-15T09:33:16;10.50;99.90
10306;DHT22;5198;52.382;9.020;2023-03-15T09:37:18;10.90;99.90
10306;DHT22;5198;52.382;9.020;2023-03-15T09:41:27;11.40;99.90
10306;DHT22;5198;52.382;9.020;2023-03-15T09:45:39;12.00;99.90
10306;DHT22;5198;52.382;9.020;2023-03-15T09:49:46;12.00;99.90
10306;DHT22;5198;52.382;9.020;2023-03-15T09:53:53;12.10;99.90
10306;DHT22;5198;52.382;9.020;2023-03-15T09:57:57;12.30;99.90
10306;DHT22;5198;52.382;9.020;2023-03-15T10:02:03;12.70;99.90
10306;DHT22;5198;52.382;9.020;2023-03-15T10:06:16;12.70;99.90
10306;DHT22;5198;52.382;9.020;2023-03-15T10:10:21;12.80;99.90
10306;DHT22;5198;52.382;9.020;2023-03-15T10:14:26;12.50;99.90
10306;DHT22;5198;52.382;9.020;2023-03-15T10:18:41;12.30;99.90
10306;DHT22;5198;52.382;9.020;2023-03-15T10:22:51;12.50;99.90
10306;DHT22;5198;52.382;9.020;2023-03-15T10:26:56;12.90;99.90
10306;DHT22;5198;52.382;9.020;2023-03-15T10:31:00;13.10;99.90
10306;DHT22;5198;52.382;9.020;2023-03-15T10:35:11;13.60;99.90
10306;DHT22;5198;52.382;9.020;2023-03-15T10:39:16;14.20;99.90
10306;DHT22;5198;52.382;9.020;2023-03-15T10:43:20;14.10;99.90
10306;DHT22;5198;52.382;9.020;2023-03-15T10:47:24;14.50;99.90
10306;DHT22;5198;52.382;9.020;2023-03-15T10:51:28;14.80;99.90
10306;DHT22;5198;52.382;9.020;2023-03-15T10:55:34;15.10;99.90
10306;DHT22;5198;52.382;9.020;2023-03-15T10:59:38;15.30;99.90
10306;DHT22;5198;52.382;9.020;2023-03-15T11:04:08;15.50;99.90
10306;DHT22;5198;52.382;9.020;2023-03-15T11:08:12;15.50;99.90
10306;DHT22;5198;52.382;9.020;2023-03-15T11:12:20;15.60;99.90
10306;DHT22;5198;52.382;9.020;2023-03-15T11:16:24;15.40;99.90
10306;DHT22;5198;52.382;9.020;2023-03-15T11:20:28;15.10;99.90
10306;DHT22;5198;52.382;9.020;2023-03-15T11:24:32;15.00;99.90
10306;DHT22;5198;52.382;9.020;2023-03-15T11:28:46;14.60;99.90
10306;DHT22;5198;52.382;9.020;2023-03-15T11:32:50;14.40;99.90
10306;DHT22;5198;52.382;9.020;2023-03-15T11:36:54;14.10;99.90
10306;DHT22;5198;52.382;9.020;2023-03-15T11:41:10;13.80;99.90
10306;DHT22;5198;52.382;9.020;2023-03-15T11:45:19;13.50;99.90
10306;DHT22;5198;52.382;9.020;2023-03-15T11:49:30;13.60;99.90
10306;DHT22;5198;52.382;9.020;2023-03-15T11:53:36;13.60;99.90
10306;DHT22;5198;52.382;9.020;2023-03-15T11:57:41;13.90;99.90
10306;DHT22;5198;52.382;9.020;2023-03-15T12:01:46;14.10;99.90
10306;DHT22;5198;52.382;9.020;2023-03-15T12:05:50;14.00;99.90
10306;DHT22;5198;52.382;9.020;2023-03-15T12:09:54;13.80;99.90
10306;DHT22;5198;52.382;9.020;2023-03-15T12:14:02;13.10;99.90
10306;DHT22;5198;52.382;9.020;2023-03-15T12:18:11;12.60;99.90
10306;DHT22;5198;52.382;9.020;2023-03-15T12:22:15;12.00;99.90
10306;DHT22;5198;52.382;9.020;2023-03-15T12:26:22;11.40;99.90
10306;DHT22;5198;52.382;9.020;2023-03-15T12:30:29;10.70;99.90
10306;DHT22;5198;52.382;9.020;2023-03-15T12:34:41;10.10;99.90
10306;DHT22;5198;52.382;9.020;2023-03-15T12:38:52;9.60;99.90
10306;DHT22;5198;52.382;9.020;2023-03-15T12:42:59;9.20;99.90
10306;DHT22;5198;52.382;9.020;2023-03-15T12:47:02;8.80;99.90
10306;DHT22;5198;52.382;9.020;2023-03-15T12:51:10;8.50;99.90
10306;DHT22;5198;52.382;9.020;2023-03-15T12:55:16;8.00;99.90
10306;DHT22;5198;52.382;9.020;2023-03-15T12:59:22;7.70;99.90
10306;DHT22;5198;52.382;9.020;2023-03-15T13:03:27;7.50;99.90
10306;DHT22;5198;52.382;9.020;2023-03-15T13:07:33;7.40;99.90
10306;DHT22;5198;52.382;9.020;2023-03-15T13:11:52;7.40;99.90
10306;DHT22;5198;52.382;9.020;2023-03-15T13:16:00;7.40;99.90
10306;DHT22;5198;52.382;9.020;2023-03-15T13:20:12;7.40;99.90
10306;DHT22;5198;52.382;9.020;2023-03-15T13:24:22;7.40;99.90
10306;DHT22;5198;52.382;9.020;2023-03-15T13:28:29;7.50;99.90
10306;DHT22;5198;52.382;9.020;2023-03-15T13:32:41;7.50;99.90
10306;DHT22;5198;52.382;9.020;2023-03-15T13:36:45;7.50;99.90
10306;DHT22;5198;52.382;9.020;2023-03-15T13:40:50;7.50;99.90
10306;DHT22;5198;52.382;9.020;2023-03-15T13:45:11;7.50;99.90
10306;DHT22;5198;52.382;9.020;2023-03-15T13:49:14;7.50;99.90
10306;DHT22;5198;52.382;9.020;2023-03-15T13:53:18;7.50;99.90
10306;DHT22;5198;52.382;9.020;2023-03-15T13:57:30;7.60;99.90
10306;DHT22;5198;52.382;9.020;2023-03-15T14:01:35;7.60;99.90
10306;DHT22;5198;52.382;9.020;2023-03-15T14:05:42;7.70;99.90
10306;DHT22;5198;52.382;9.020;2023-03-15T14:09:45;7.70;99.90
10306;DHT22;5198;52.382;9.020;2023-03-15T14:13:50;7.70;99.90
10306;DHT22;5198;52.382;9.020;2023-03-15T14:17:56;7.70;99.90
10306;DHT22;5198;52.382;9.020;2023-03-15T14:22:01;7.70;99.90
10306;DHT22;5198;52.382;9.020;2023-03-15T14:26:10;7.70;99.90
10306;DHT22;5198;52.382;9.020;2023-03-15T14:30:18;7.70;99.90
10306;DHT22;5198;52.382;9.020;2023-03-15T14:34:23;7.70;99.90
10306;DHT22;5198;52.382;9.020;2023-03-15T14:38:30;7.80;99.90
10306;DHT22;5198;52.382;9.020;2023-03-15T14:42:34;7.90;99.90
10306;DHT22;5198;52.382;9.020;2023-03-15T14:46:38;8.20;99.90
10306;DHT22;5198;52.382;9.020;2023-03-15T14:50:41;8.60;99.90
10306;DHT22;5198;52.382;9.020;2023-03-15T14:54:47;9.00;99.90
10306;DHT22;5198;52.382;9.020;2023-03-15T14:58:50;9.40;99.90
10306;DHT22;5198;52.382;9.020;2023-03-15T15:02:56;9.70;99.90
10306;DHT22;5198;52.382;9.020;2023-03-15T15:06:59;10.10;99.90
10306;DHT22;5198;52.382;9.020;2023-03-15T15:11:04;10.40;99.90
10306;DHT22;5198;52.382;9.020;2023-03-15T15:15:12;10.60;99.90
10306;DHT22;5198;52.382;9.020;2023-03-15T15:19:17;10.80;99.90
10306;DHT22;5198;52.382;9.020;2023-03-15T15:23:21;10.90;99.90
10306;DHT22;5198;52.382;9.020;2023-03-15T15:27:24;11.00;99.90
10306;DHT22;5198;52.382;9.020;2023-03-15T15:31:28;11.00;99.90
10306;DHT22;5198;52.382;9.020;2023-03-15T15:35:36;11.00;99.90
10306;DHT22;5198;52.382;9.020;2023-03-15T15:39:39;11.00;99.90
10306;DHT22;5198;52.382;9.020;2023-03-15T15:43:42;11.00;99.90
10306;DHT22;5198;52.382;9.020;2023-03-15T15:47:45;11.00;99.90
10306;DHT22;5198;52.382;9.020;2023-03-15T15:51:49;11.10;99.90
10306;DHT22;5198;52.382;9.020;2023-03-15T15:55:52;11.20;99.90
10306;DHT22;5198;52.382;9.020;2023-03-15T15:59:55;11.30;99.90
10306;DHT22;5198;52.382;9.020;2023-03-15T16:04:00;11.40;99.90
10306;DHT22;5198;52.382;9.020;2023-03-15T16:08:08;11.50;99.90
10306;DHT22;5198;52.382;9.020;2023-03-15T16:12:22;11.60;99.90
10306;DHT22;5198;52.382;9.020;2023-03-15T16:16:27;11.70;99.90
10306;DHT22;5198;52.382;9.020;2023-03-15T16:20:31;11.70;99.90
10306;DHT22;5198;52.382;9.020;2023-03-15T16:24:38;11.80;99.90
10306;DHT22;5198;52.382;9.020;2023-03-15T16:28:47;11.80;99.90
10306;DHT22;5198;52.382;9.020;2023-03-15T16:32:53;11.60;99.90
10306;DHT22;5198;52.382;9.020;2023-03-15T16:36:57;11.60;99.90
10306;DHT22;5198;52.382;9.020;2023-03-15T16:41:03;11.50;99.90
10306;DHT22;5198;52.382;9.020;2023-03-15T16:45:10;11.30;99.90
10306;DHT22;5198;52.382;9.020;2023-03-15T16:49:14;11.00;99.90
10306;DHT22;5198;52.382;9.020;2023-03-15T16:53:17;10.50;99.90
10306;DHT22;5198;52.382;9.020;2023-03-15T16:57:22;10.50;99.90
10306;DHT22;5198;52.382;9.020;2023-03-15T17:01:26;10.20;99.90
10306;DHT22;5198;52.382;9.020;2023-03-15T17:05:31;10.00;99.90
10306;DHT22;5198;52.382;9.020;2023-03-15T17:09:35;9.80;99.90
10306;DHT22;5198;52.382;9.020;2023-03-15T17:13:40;9.60;99.90
10306;DHT22;5198;52.382;9.020;2023-03-15T17:17:44;9.40;99.90
10306;DHT22;5198;52.382;9.020;2023-03-15T17:21:47;9.20;99.90
10306;DHT22;5198;52.382;9.020;2023-03-15T17:25:50;9.00;99.90
10306;DHT22;5198;52.382;9.020;2023-03-15T17:29:55;8.60;99.90
10306;DHT22;5198;52.382;9.020;2023-03-15T17:33:58;8.60;99.90
10306;DHT22;5198;52.382;9.020;2023-03-15T17:38:02;8.40;99.90
10306;DHT22;5198;52.382;9.020;2023-03-15T17:42:08;8.20;99.90
10306;DHT22;5198;52.382;9.020;2023-03-15T17:46:13;8.00;99.90
10306;DHT22;5198;52.382;9.020;2023-03-15T17:50:16;7.70;99.90
10306;DHT22;5198;52.382;9.020;2023-03-15T17:54:19;7.70;99.90
10306;DHT22;5198;52.382;9.020;2023-03-15T17:58:23;7.50;99.90
10306;DHT22;5198;52.382;9.020;2023-03-15T18:02:28;7.40;99.90
10306;DHT22;5198;52.382;9.020;2023-03-15T18:06:33;7.20;99.90
10306;DHT22;5198;52.382;9.020;2023-03-15T18:10:37;7.10;99.90
10306;DHT22;5198;52.382;9.020;2023-03-15T18:14:42;7.00;99.90
10306;DHT22;5198;52.382;9.020;2023-03-15T18:18:55;6.80;99.90
10306;DHT22;5198;52.382;9.020;2023-03-15T18:22:58;6.60;99.90
10306;DHT22;5198;52.382;9.020;2023-03-15T18:27:07;6.40;99.90
10306;DHT22;5198;52.382;9.020;2023-03-15T18:31:11;6.20;99.90
10306;DHT22;5198;52.382;9.020;2023-03-15T18:35:16;6.10;99.90
10306;DHT22;5198;52.382;9.020;2023-03-15T18:39:21;5.90;99.90
10306;DHT22;5198;52.382;9.020;2023-03-15T18:47:37;5.70;99.90
10306;DHT22;5198;52.382;9.020;2023-03-15T18:51:42;5.50;99.90
10306;DHT22;5198;52.382;9.020;2023-03-15T18:55:44;5.40;99.90
10306;DHT22;5198;52.382;9.020;2023-03-15T18:59:47;5.40;99.90
10306;DHT22;5198;52.382;9.020;2023-03-15T19:03:50;5.30;99.90
10306;DHT22;5198;52.382;9.020;2023-03-15T19:07:55;5.20;99.90
10306;DHT22;5198;52.382;9.020;2023-03-15T19:11:58;5.10;99.90
10306;DHT22;5198;52.382;9.020;2023-03-15T19:16:03;4.90;99.90
10306;DHT22;5198;52.382;9.020;2023-03-15T19:20:07;4.80;99.90
10306;DHT22;5198;52.382;9.020;2023-03-15T19:24:14;4.80;99.90
10306;DHT22;5198;52.382;9.020;2023-03-15T19:28:18;4.70;99.90
10306;DHT22;5198;52.382;9.020;2023-03-15T19:32:21;4.60;99.90
10306;DHT22;5198;52.382;9.020;2023-03-15T19:36:24;4.60;99.90
10306;DHT22;5198;52.382;9.020;2023-03-15T19:40:29;4.50;99.90
10306;DHT22;5198;52.382;9.020;2023-03-15T19:44:31;4.50;99.90
10306;DHT22;5198;52.382;9.020;2023-03-15T19:48:36;4.40;99.90
10306;DHT22;5198;52.382;9.020;2023-03-15T19:52:39;4.40;99.90
10306;DHT22;5198;52.382;9.020;2023-03-15T19:56:47;4.30;99.90
10306;DHT22;5198;52.382;9.020;2023-03-15T20:00:53;4.20;99.90
10306;DHT22;5198;52.382;9.020;2023-03-15T20:04:57;4.20;99.90
10306;DHT22;5198;52.382;9.020;2023-03-15T20:09:00;4.10;99.90
10306;DHT22;5198;52.382;9.020;2023-03-15T20:13:08;4.10;99.90
10306;DHT22;5198;52.382;9.020;2023-03-15T20:17:11;4.10;99.90
10306;DHT22;5198;52.382;9.020;2023-03-15T20:21:15;4.00;99.90
10306;DHT22;5198;52.382;9.020;2023-03-15T20:25:20;4.00;99.90
10306;DHT22;5198;52.382;9.020;2023-03-15T20:29:24;3.90;99.90
10306;DHT22;5198;52.382;9.020;2023-03-15T20:33:28;3.80;99.90
10306;DHT22;5198;52.382;9.020;2023-03-15T20:37:31;3.80;99.90
10306;DHT22;5198;52.382;9.020;2023-03-15T20:41:36;3.70;99.90
10306;DHT22;5198;52.382;9.020;2023-03-15T20:45:41;3.60;99.90
10306;DHT22;5198;52.382;9.020;2023-03-15T20:49:44;3.50;99.90
10306;DHT22;5198;52.382;9.020;2023-03-15T20:53:47;3.50;99.90
10306;DHT22;5198;52.382;9.020;2023-03-15T20:57:50;3.40;99.90
10306;DHT22;5198;52.382;9.020;2023-03-15T21:01:55;3.30;99.90
10306;DHT22;5198;52.382;9.020;2023-03-15T21:05:58;3.20;99.90
10306;DHT22;5198;52.382;9.020;2023-03-15T21:10:01;3.10;99.90
10306;DHT22;5198;52.382;9.020;2023-03-15T21:14:04;3.10;99.90
10306;DHT22;5198;52.382;9.020;2023-03-15T21:18:09;3.00;99.90
10306;DHT22;5198;52.382;9.020;2023-03-15T21:22:12;2.90;99.90
10306;DHT22;5198;52.382;9.020;2023-03-15T21:26:15;2.90;99.90
10306;DHT22;5198;52.382;9.020;2023-03-15T21:30:18;2.80;99.90
10306;DHT22;5198;52.382;9.020;2023-03-15T21:34:22;2.80;99.90
10306;DHT22;5198;52.382;9.020;2023-03-15T21:38:27;2.70;99.90
10306;DHT22;5198;52.382;9.020;2023-03-15T21:42:32;2.70;99.90
10306;DHT22;5198;52.382;9.020;2023-03-15T21:46:34;2.60;99.90
10306;DHT22;5198;52.382;9.020;2023-03-15T21:50:49;2.60;99.90
10306;DHT22;5198;52.382;9.020;2023-03-15T21:54:54;2.50;99.90
10306;DHT22;5198;52.382;9.020;2023-03-15T21:58:57;2.40;99.90
10306;DHT22;5198;52.382;9.020;2023-03-15T22:02:59;2.40;99.90
10306;DHT22;5198;52.382;9.020;2023-03-15T22:07:05;2.40;99.90
10306;DHT22;5198;52.382;9.020;2023-03-15T22:11:09;2.30;99.90
10306;DHT22;5198;52.382;9.020;2023-03-15T22:15:12;2.30;99.90
10306;DHT22;5198;52.382;9.020;2023-03-15T22:19:16;2.30;99.90
10306;DHT22;5198;52.382;9.020;2023-03-15T22:23:20;2.20;99.90
10306;DHT22;5198;52.382;9.020;2023-03-15T22:27:25;2.10;99.90
10306;DHT22;5198;52.382;9.020;2023-03-15T22:31:27;2.10;99.90
10306;DHT22;5198;52.382;9.020;2023-03-15T22:35:32;2.00;99.90
10306;DHT22;5198;52.382;9.020;2023-03-15T22:39:37;2.00;99.90
10306;DHT22;5198;52.382;9.020;2023-03-15T22:43:43;2.00;99.90
10306;DHT22;5198;52.382;9.020;2023-03-15T22:47:46;1.90;99.90
10306;DHT22;5198;52.382;9.020;2023-03-15T22:51:49;1.90;99.90
10306;DHT22;5198;52.382;9.020;2023-03-15T22:55:54;1.80;99.90
10306;DHT22;5198;52.382;9.020;2023-03-15T22:59:58;1.80;99.90
10306;DHT22;5198;52.382;9.020;2023-03-15T23:04:02;1.80;99.90
10306;DHT22;5198;52.382;9.020;2023-03-15T23:08:07;1.80;99.90
10306;DHT22;5198;52.382;9.020;2023-03-15T23:12:12;1.80;99.90
10306;DHT22;5198;52.382;9.020;2023-03-15T23:16:18;1.70;99.90
10306;DHT22;5198;52.382;9.020;2023-03-15T23:20:22;1.60;99.90
10306;DHT22;5198;52.382;9.020;2023-03-15T23:24:28;1.60;99.90
10306;DHT22;5198;52.382;9.020;2023-03-15T23:32:36;1.50;99.90
10306;DHT22;5198;52.382;9.020;2023-03-15T23:36:39;1.50;99.90
10306;DHT22;5198;52.382;9.020;2023-03-15T23:40:52;1.40;99.90
10306;DHT22;5198;52.382;9.020;2023-03-15T23:44:57;1.40;99.90
10306;DHT22;5198;52.382;9.020;2023-03-15T23:49:00;1.40;99.90
10306;DHT22;5198;52.382;9.020;2023-03-15T23:53:03;1.40;99.90
10306;DHT22;5198;52.382;9.020;2023-03-15T23:57:07;1.30;99.90
